sensor_id;sensor_type;location;lat;lon;timestamp;temperature;humidity
8820;DHT22;4446;50.876;4.736;2023-07-28T00:02:04;17.40;99.90
8820;DHT22;4446;50.876;4.736;2023-07-28T00:04:34;17.30;99.90
8820;DHT22;4446;50.876;4.736;2023-07-28T00:07:01;17.30;99.90
8820;DHT22;4446;50.876;4.736;2023-07-28T00:09:28;17.40;99.90
8820;DHT22;4446;50.876;4.736;2023-07-28T00:11:56;17.40;99.90
8820;DHT22;4446;50.876;4.736;2023-07-28T00:14:24;17.40;99.90
8820;DHT22;4446;50.876;4.736;2023-07-28T00:16:51;17.40;99.90
8820;DHT22;4446;50.876;4.736;2023-07-28T00:19:18;17.40;99.90
8820;DHT22;4446;50.876;4.736;2023-07-28T00:21:47;17.40;99.90
8820;DHT22;4446;50.876;4.736;2023-07-28T00:24:14;17.40;99.90
8820;DHT22;4446;50.876;4.736;2023-07-28T00:26:41;17.40;99.90
8820;DHT22;4446;50.876;4.736;2023-07-28T00:29:09;17.40;99.90
8820;DHT22;4446;50.876;4.736;2023-07-28T00:31:36;17.40;99.90
8820;DHT22;4446;50.876;4.736;2023-07-28T00:34:03;17.40;99.90
8820;DHT22;4446;50.876;4.736;2023-07-28T00:36:30;17.40;99.90
8820;DHT22;4446;50.876;4.736;2023-07-28T00:38:59;17.40;99.90
8820;DHT22;4446;50.876;4.736;2023-07-28T00:41:26;17.40;99.90
8820;DHT22;4446;50.876;4.736;2023-07-28T00:43:53;17.40;99.90
8820;DHT22;4446;50.876;4.736;2023-07-28T00:46:20;17.40;99.90
8820;DHT22;4446;50.876;4.736;2023-07-28T00:48:47;17.40;99.90
8820;DHT22;4446;50.876;4.736;2023-07-28T00:51:14;17.40;99.90
8820;DHT22;4446;50.876;4.736;2023-07-28T00:53:40;17.40;99.90
8820;DHT22;4446;50.876;4.736;2023-07-28T00:56:10;17.40;99.90
8820;DHT22;4446;50.876;4.736;2023-07-28T00:58:37;17.40;99.90
8820;DHT22;4446;50.876;4.736;2023-07-28T01:01:04;17.40;99.90
8820;DHT22;4446;50.876;4.736;2023-07-28T01:03:32;17.40;99.90
8820;DHT22;4446;50.876;4.736;2023-07-28T01:06:10;17.40;99.90
8820;DHT22;4446;50.876;4.736;2023-07-28T01:08:42;17.40;99.90
8820;DHT22;4446;50.876;4.736;2023-07-28T01:11:13;17.40;99.90
8820;DHT22;4446;50.876;4.736;2023-07-28T01:13:40;17.40;99.90
8820;DHT22;4446;50.876;4.736;2023-07-28T01:16:07;17.40;99.90
8820;DHT22;4446;50.876;4.736;2023-07-28T01:18:35;17.40;99.90
8820;DHT22;4446;50.876;4.736;2023-07-28T01:21:04;17.40;99.90
8820;DHT22;4446;50.876;4.736;2023-07-28T01:23:41;17.40;99.90
8820;DHT22;4446;50.876;4.736;2023-07-28T01:26:12;17.40;99.90
8820;DHT22;4446;50.876;4.736;2023-07-28T01:28:43;17.40;99.90
8820;DHT22;4446;50.876;4.736;2023-07-28T01:31:11;17.40;99.90
8820;DHT22;4446;50.876;4.736;2023-07-28T01:33:38;17.40;99.90
8820;DHT22;4446;50.876;4.736;2023-07-28T01:36:05;17.50;99.90
8820;DHT22;4446;50.876;4.736;2023-07-28T01:38:32;17.50;99.90
8820;DHT22;4446;50.876;4.736;2023-07-28T01:40:59;17.50;99.90
8820;DHT22;4446;50.876;4.736;2023-07-28T01:43:26;17.50;99.90
8820;DHT22;4446;50.876;4.736;2023-07-28T01:45:54;17.50;99.90
8820;DHT22;4446;50.876;4.736;2023-07-28T01:48:21;17.50;99.90
8820;DHT22;4446;50.876;4.736;2023-07-28T01:50:49;17.50;99.90
8820;DHT22;4446;50.876;4.736;2023-07-28T01:53:16;17.50;99.90
8820;DHT22;4446;50.876;4.736;2023-07-28T01:55:43;17.50;99.90
8820;DHT22;4446;50.876;4.736;2023-07-28T01:58:10;17.50;99.90
8820;DHT22;4446;50.876;4.736;2023-07-28T02:00:37;17.50;99.90
8820;DHT22;4446;50.876;4.736;2023-07-28T02:03:05;17.50;99.90
8820;DHT22;4446;50.876;4.736;2023-07-28T02:05:33;17.40;99.90
8820;DHT22;4446;50.876;4.736;2023-07-28T02:08:00;17.50;99.90
8820;DHT22;4446;50.876;4.736;2023-07-28T02:10:27;17.50;99.90
8820;DHT22;4446;50.876;4.736;2023-07-28T02:12:55;17.40;99.90
8820;DHT22;4446;50.876;4.736;2023-07-28T02:15:22;17.50;99.90
8820;DHT22;4446;50.876;4.736;2023-07-28T02:17:49;17.50;99.90
8820;DHT22;4446;50.876;4.736;2023-07-28T02:20:17;17.50;99.90
8820;DHT22;4446;50.876;4.736;2023-07-28T02:22:44;17.50;99.90
8820;DHT22;4446;50.876;4.736;2023-07-28T02:25:11;17.50;99.90
8820;DHT22;4446;50.876;4.736;2023-07-28T02:27:38;17.40;99.90
8820;DHT22;4446;50.876;4.736;2023-07-28T02:30:06;17.50;99.90
8820;DHT22;4446;50.876;4.736;2023-07-28T02:32:34;17.50;99.90
8820;DHT22;4446;50.876;4.736;2023-07-28T02:35:01;17.40;99.90
8820;DHT22;4446;50.876;4.736;2023-07-28T02:37:29;17.50;99.90
8820;DHT22;4446;50.876;4.736;2023-07-28T02:39:56;17.50;99.90
8820;DHT22;4446;50.876;4.736;2023-07-28T02:42:23;17.50;99.90
8820;DHT22;4446;50.876;4.736;2023-07-28T02:44:50;17.50;99.90
8820;DHT22;4446;50.876;4.736;2023-07-28T02:47:18;17.50;99.90
8820;DHT22;4446;50.876;4.736;2023-07-28T02:49:45;17.50;99.90
8820;DHT22;4446;50.876;4.736;2023-07-28T02:52:12;17.50;99.90
8820;DHT22;4446;50.876;4.736;2023-07-28T02:54:40;17.50;99.90
8820;DHT22;4446;50.876;4.736;2023-07-28T02:57:07;17.50;99.90
8820;DHT22;4446;50.876;4.736;2023-07-28T02:59:34;17.50;99.90
8820;DHT22;4446;50.876;4.736;2023-07-28T03:02:01;17.50;99.90
8820;DHT22;4446;50.876;4.736;2023-07-28T03:04:28;17.50;99.90
8820;DHT22;4446;50.876;4.736;2023-07-28T03:06:55;17.50;99.90
8820;DHT22;4446;50.876;4.736;2023-07-28T03:09:22;17.50;99.90
8820;DHT22;4446;50.876;4.736;2023-07-28T03:11:51;17.50;99.90
8820;DHT22;4446;50.876;4.736;2023-07-28T03:14:18;17.50;99.90
8820;DHT22;4446;50.876;4.736;2023-07-28T03:16:44;17.50;99.90
8820;DHT22;4446;50.876;4.736;2023-07-28T03:19:11;17.50;99.90
8820;DHT22;4446;50.876;4.736;2023-07-28T03:21:38;17.50;99.90
8820;DHT22;4446;50.876;4.736;2023-07-28T03:24:05;17.50;99.90
8820;DHT22;4446;50.876;4.736;2023-07-28T03:26:32;17.50;99.90
8820;DHT22;4446;50.876;4.736;2023-07-28T03:29:00;17.50;99.90
8820;DHT22;4446;50.876;4.736;2023-07-28T03:31:27;17.40;99.90
8820;DHT22;4446;50.876;4.736;2023-07-28T03:33:54;17.40;99.90
8820;DHT22;4446;50.876;4.736;2023-07-28T03:36:21;17.40;99.90
8820;DHT22;4446;50.876;4.736;2023-07-28T03:38:48;17.40;99.90
8820;DHT22;4446;50.876;4.736;2023-07-28T03:41:15;17.40;99.90
8820;DHT22;4446;50.876;4.736;2023-07-28T03:43:42;17.40;99.90
8820;DHT22;4446;50.876;4.736;2023-07-28T03:46:10;17.50;99.90
8820;DHT22;4446;50.876;4.736;2023-07-28T03:48:38;17.50;99.90
8820;DHT22;4446;50.876;4.736;2023-07-28T03:51:04;17.50;99.90
8820;DHT22;4446;50.876;4.736;2023-07-28T03:53:31;17.50;99.90
8820;DHT22;4446;50.876;4.736;2023-07-28T03:56:01;17.50;99.90
8820;DHT22;4446;50.876;4.736;2023-07-28T03:58:27;17.50;99.90
8820;DHT22;4446;50.876;4.736;2023-07-28T04:00:54;17.50;99.90
8820;DHT22;4446;50.876;4.736;2023-07-28T04:03:23;17.50;99.90
8820;DHT22;4446;50.876;4.736;2023-07-28T04:05:50;17.50;99.90
8820;DHT22;4446;50.876;4.736;2023-07-28T04:08:16;17.50;99.90
8820;DHT22;4446;50.876;4.736;2023-07-28T04:10:43;17.50;99.90
8820;DHT22;4446;50.876;4.736;2023-07-28T04:13:10;17.50;99.90
8820;DHT22;4446;50.876;4.736;2023-07-28T04:15:37;17.50;99.90
8820;DHT22;4446;50.876;4.736;2023-07-28T04:18:05;17.50;99.90
8820;DHT22;4446;50.876;4.736;2023-07-28T04:20:33;17.50;99.90
8820;DHT22;4446;50.876;4.736;2023-07-28T04:23:00;17.50;99.90
8820;DHT22;4446;50.876;4.736;2023-07-28T04:25:27;17.50;99.90
8820;DHT22;4446;50.876;4.736;2023-07-28T04:27:54;17.50;99.90
8820;DHT22;4446;50.876;4.736;2023-07-28T04:30:22;17.50;99.90
8820;DHT22;4446;50.876;4.736;2023-07-28T04:32:49;17.50;99.90
8820;DHT22;4446;50.876;4.736;2023-07-28T04:35:16;17.50;99.90
8820;DHT22;4446;50.876;4.736;2023-07-28T04:37:44;17.60;99.90
8820;DHT22;4446;50.876;4.736;2023-07-28T04:40:12;17.50;99.90
8820;DHT22;4446;50.876;4.736;2023-07-28T04:42:39;17.60;99.90
8820;DHT22;4446;50.876;4.736;2023-07-28T04:45:07;17.60;99.90
8820;DHT22;4446;50.876;4.736;2023-07-28T04:47:34;17.60;99.90
8820;DHT22;4446;50.876;4.736;2023-07-28T04:50:01;17.60;99.90
8820;DHT22;4446;50.876;4.736;2023-07-28T04:52:28;17.60;99.90
8820;DHT22;4446;50.876;4.736;2023-07-28T04:54:56;17.60;99.90
8820;DHT22;4446;50.876;4.736;2023-07-28T04:57:23;17.70;99.90
8820;DHT22;4446;50.876;4.736;2023-07-28T04:59:50;17.70;99.90
8820;DHT22;4446;50.876;4.736;2023-07-28T05:02:18;17.60;99.90
8820;DHT22;4446;50.876;4.736;2023-07-28T05:04:45;17.60;99.90
8820;DHT22;4446;50.876;4.736;2023-07-28T05:07:12;17.60;99.90
8820;DHT22;4446;50.876;4.736;2023-07-28T05:09:39;17.70;99.90
8820;DHT22;4446;50.876;4.736;2023-07-28T05:12:08;17.70;99.90
8820;DHT22;4446;50.876;4.736;2023-07-28T05:14:35;17.70;99.90
8820;DHT22;4446;50.876;4.736;2023-07-28T05:17:02;17.70;99.90
8820;DHT22;4446;50.876;4.736;2023-07-28T05:19:29;17.70;99.90
8820;DHT22;4446;50.876;4.736;2023-07-28T05:21:56;17.70;99.90
8820;DHT22;4446;50.876;4.736;2023-07-28T05:24:23;17.70;99.90
8820;DHT22;4446;50.876;4.736;2023-07-28T05:26:50;17.70;99.90
8820;DHT22;4446;50.876;4.736;2023-07-28T05:29:18;17.80;99.90
8820;DHT22;4446;50.876;4.736;2023-07-28T05:31:45;17.80;99.90
8820;DHT22;4446;50.876;4.736;2023-07-28T05:34:12;17.90;99.90
8820;DHT22;4446;50.876;4.736;2023-07-28T05:36:39;17.90;99.90
8820;DHT22;4446;50.876;4.736;2023-07-28T05:39:06;18.00;99.90
8820;DHT22;4446;50.876;4.736;2023-07-28T05:41:33;18.10;99.90
8820;DHT22;4446;50.876;4.736;2023-07-28T05:44:00;18.20;99.90
8820;DHT22;4446;50.876;4.736;2023-07-28T05:46:29;18.20;99.90
8820;DHT22;4446;50.876;4.736;2023-07-28T05:48:57;18.10;99.90
8820;DHT22;4446;50.876;4.736;2023-07-28T05:51:24;18.20;99.90
8820;DHT22;4446;50.876;4.736;2023-07-28T05:53:51;18.30;99.90
8820;DHT22;4446;50.876;4.736;2023-07-28T05:56:18;18.30;99.90
8820;DHT22;4446;50.876;4.736;2023-07-28T05:58:45;18.30;99.90
8820;DHT22;4446;50.876;4.736;2023-07-28T06:01:12;18.30;99.90
8820;DHT22;4446;50.876;4.736;2023-07-28T06:03:40;18.40;99.90
8820;DHT22;4446;50.876;4.736;2023-07-28T06:06:07;18.40;99.90
8820;DHT22;4446;50.876;4.736;2023-07-28T06:08:35;18.40;99.90
8820;DHT22;4446;50.876;4.736;2023-07-28T06:11:03;18.50;99.90
8820;DHT22;4446;50.876;4.736;2023-07-28T06:13:31;18.50;99.90
8820;DHT22;4446;50.876;4.736;2023-07-28T06:15:58;18.50;99.90
8820;DHT22;4446;50.876;4.736;2023-07-28T06:18:25;18.50;99.90
8820;DHT22;4446;50.876;4.736;2023-07-28T06:20:54;18.50;99.90
8820;DHT22;4446;50.876;4.736;2023-07-28T06:23:21;18.50;99.90
8820;DHT22;4446;50.876;4.736;2023-07-28T06:25:48;18.60;99.90
8820;DHT22;4446;50.876;4.736;2023-07-28T06:28:15;18.60;99.90
8820;DHT22;4446;50.876;4.736;2023-07-28T06:30:42;18.60;99.90
8820;DHT22;4446;50.876;4.736;2023-07-28T06:33:09;18.60;99.90
8820;DHT22;4446;50.876;4.736;2023-07-28T06:35:36;18.50;99.90
8820;DHT22;4446;50.876;4.736;2023-07-28T06:38:05;18.50;99.90
8820;DHT22;4446;50.876;4.736;2023-07-28T06:40:32;18.50;99.90
8820;DHT22;4446;50.876;4.736;2023-07-28T06:42:58;18.50;99.90
8820;DHT22;4446;50.876;4.736;2023-07-28T06:45:25;18.50;99.90
8820;DHT22;4446;50.876;4.736;2023-07-28T06:47:52;18.60;99.90
8820;DHT22;4446;50.876;4.736;2023-07-28T06:50:19;18.60;99.90
8820;DHT22;4446;50.876;4.736;2023-07-28T06:52:46;18.70;99.90
8820;DHT22;4446;50.876;4.736;2023-07-28T06:55:16;18.70;99.90
8820;DHT22;4446;50.876;4.736;2023-07-28T06:57:47;18.70;99.90
8820;DHT22;4446;50.876;4.736;2023-07-28T07:00:15;18.80;99.90
8820;DHT22;4446;50.876;4.736;2023-07-28T07:02:43;19.00;99.90
8820;DHT22;4446;50.876;4.736;2023-07-28T07:05:10;18.90;99.90
8820;DHT22;4446;50.876;4.736;2023-07-28T07:07:38;18.90;99.90
8820;DHT22;4446;50.876;4.736;2023-07-28T07:10:06;19.00;99.90
8820;DHT22;4446;50.876;4.736;2023-07-28T07:12:36;19.00;99.90
8820;DHT22;4446;50.876;4.736;2023-07-28T07:15:03;19.00;99.90
8820;DHT22;4446;50.876;4.736;2023-07-28T07:17:31;19.00;99.90
8820;DHT22;4446;50.876;4.736;2023-07-28T07:19:58;19.20;99.90
8820;DHT22;4446;50.876;4.736;2023-07-28T07:22:25;19.40;99.90
8820;DHT22;4446;50.876;4.736;2023-07-28T07:24:53;19.50;99.90
8820;DHT22;4446;50.876;4.736;2023-07-28T07:27:23;19.70;99.90
8820;DHT22;4446;50.876;4.736;2023-07-28T07:29:51;19.70;99.90
8820;DHT22;4446;50.876;4.736;2023-07-28T07:32:19;19.70;99.90
8820;DHT22;4446;50.876;4.736;2023-07-28T07:34:46;19.60;99.90
8820;DHT22;4446;50.876;4.736;2023-07-28T07:37:13;19.40;99.90
8820;DHT22;4446;50.876;4.736;2023-07-28T07:39:39;19.40;99.90
8820;DHT22;4446;50.876;4.736;2023-07-28T07:42:09;19.20;99.90
8820;DHT22;4446;50.876;4.736;2023-07-28T07:44:37;19.20;99.90
8820;DHT22;4446;50.876;4.736;2023-07-28T07:47:13;19.20;99.90
8820;DHT22;4446;50.876;4.736;2023-07-28T07:49:40;19.20;99.90
8820;DHT22;4446;50.876;4.736;2023-07-28T07:52:08;19.10;99.90
8820;DHT22;4446;50.876;4.736;2023-07-28T07:54:36;19.10;99.90
8820;DHT22;4446;50.876;4.736;2023-07-28T07:57:03;19.00;99.90
8820;DHT22;4446;50.876;4.736;2023-07-28T07:59:30;18.90;99.90
8820;DHT22;4446;50.876;4.736;2023-07-28T08:01:59;18.90;99.90
8820;DHT22;4446;50.876;4.736;2023-07-28T08:04:30;18.80;99.90
8820;DHT22;4446;50.876;4.736;2023-07-28T08:06:57;18.90;99.90
8820;DHT22;4446;50.876;4.736;2023-07-28T08:09:24;18.90;99.90
8820;DHT22;4446;50.876;4.736;2023-07-28T08:11:51;19.00;99.90
8820;DHT22;4446;50.876;4.736;2023-07-28T08:14:18;19.10;99.90
8820;DHT22;4446;50.876;4.736;2023-07-28T08:16:45;19.20;99.90
8820;DHT22;4446;50.876;4.736;2023-07-28T08:19:12;19.40;99.90
8820;DHT22;4446;50.876;4.736;2023-07-28T08:21:41;19.60;99.90
8820;DHT22;4446;50.876;4.736;2023-07-28T08:24:08;19.70;99.90
8820;DHT22;4446;50.876;4.736;2023-07-28T08:26:35;19.70;99.90
8820;DHT22;4446;50.876;4.736;2023-07-28T08:29:02;19.70;99.90
8820;DHT22;4446;50.876;4.736;2023-07-28T08:31:29;19.70;99.90
8820;DHT22;4446;50.876;4.736;2023-07-28T08:33:55;19.80;99.90
8820;DHT22;4446;50.876;4.736;2023-07-28T08:36:22;19.90;99.90
8820;DHT22;4446;50.876;4.736;2023-07-28T08:38:51;20.10;99.90
8820;DHT22;4446;50.876;4.736;2023-07-28T08:41:18;20.20;99.90
8820;DHT22;4446;50.876;4.736;2023-07-28T08:43:45;20.10;99.90
8820;DHT22;4446;50.876;4.736;2023-07-28T08:46:12;20.10;99.90
8820;DHT22;4446;50.876;4.736;2023-07-28T08:48:39;20.10;99.90
8820;DHT22;4446;50.876;4.736;2023-07-28T08:51:06;20.10;99.90
8820;DHT22;4446;50.876;4.736;2023-07-28T08:53:34;20.20;99.90
8820;DHT22;4446;50.876;4.736;2023-07-28T08:56:02;20.40;99.90
8820;DHT22;4446;50.876;4.736;2023-07-28T08:58:30;20.40;99.90
8820;DHT22;4446;50.876;4.736;2023-07-28T09:00:57;20.40;99.90
8820;DHT22;4446;50.876;4.736;2023-07-28T09:03:26;20.40;99.90
8820;DHT22;4446;50.876;4.736;2023-07-28T09:05:59;20.30;99.90
8820;DHT22;4446;50.876;4.736;2023-07-28T09:08:26;20.30;99.90
8820;DHT22;4446;50.876;4.736;2023-07-28T09:10:53;20.30;99.90
8820;DHT22;4446;50.876;4.736;2023-07-28T09:13:22;20.40;99.90
8820;DHT22;4446;50.876;4.736;2023-07-28T09:15:49;20.60;99.90
8820;DHT22;4446;50.876;4.736;2023-07-28T09:18:17;20.70;99.90
8820;DHT22;4446;50.876;4.736;2023-07-28T09:20:44;20.80;99.90
8820;DHT22;4446;50.876;4.736;2023-07-28T09:23:13;21.00;99.90
8820;DHT22;4446;50.876;4.736;2023-07-28T09:25:41;21.00;99.90
8820;DHT22;4446;50.876;4.736;2023-07-28T09:28:09;20.80;99.90
8820;DHT22;4446;50.876;4.736;2023-07-28T09:30:48;20.50;99.90
8820;DHT22;4446;50.876;4.736;2023-07-28T09:33:29;20.30;99.90
8820;DHT22;4446;50.876;4.736;2023-07-28T09:35:56;20.10;99.90
8820;DHT22;4446;50.876;4.736;2023-07-28T09:38:24;20.00;99.90
8820;DHT22;4446;50.876;4.736;2023-07-28T09:40:56;20.00;99.90
8820;DHT22;4446;50.876;4.736;2023-07-28T09:43:24;20.00;99.90
8820;DHT22;4446;50.876;4.736;2023-07-28T09:45:52;20.10;99.90
8820;DHT22;4446;50.876;4.736;2023-07-28T09:48:21;20.20;99.90
8820;DHT22;4446;50.876;4.736;2023-07-28T09:50:48;20.30;99.90
8820;DHT22;4446;50.876;4.736;2023-07-28T09:53:16;20.30;99.90
8820;DHT22;4446;50.876;4.736;2023-07-28T09:55:45;20.30;99.90
8820;DHT22;4446;50.876;4.736;2023-07-28T09:58:16;20.30;99.90
8820;DHT22;4446;50.876;4.736;2023-07-28T10:00:44;20.20;99.90
8820;DHT22;4446;50.876;4.736;2023-07-28T10:03:14;20.00;99.90
8820;DHT22;4446;50.876;4.736;2023-07-28T10:05:41;20.00;99.90
8820;DHT22;4446;50.876;4.736;2023-07-28T10:08:08;19.80;99.90
8820;DHT22;4446;50.876;4.736;2023-07-28T10:10:35;19.90;99.90
8820;DHT22;4446;50.876;4.736;2023-07-28T10:13:02;19.90;99.90
8820;DHT22;4446;50.876;4.736;2023-07-28T10:15:31;20.20;99.90
8820;DHT22;4446;50.876;4.736;2023-07-28T10:17:58;20.40;99.90
8820;DHT22;4446;50.876;4.736;2023-07-28T10:20:33;20.70;99.90
8820;DHT22;4446;50.876;4.736;2023-07-28T10:23:11;20.90;99.90
8820;DHT22;4446;50.876;4.736;2023-07-28T10:25:40;21.10;99.90
8820;DHT22;4446;50.876;4.736;2023-07-28T10:28:25;21.20;99.90
8820;DHT22;4446;50.876;4.736;2023-07-28T10:30:54;21.20;99.90
8820;DHT22;4446;50.876;4.736;2023-07-28T10:33:29;21.20;99.90
8820;DHT22;4446;50.876;4.736;2023-07-28T10:35:58;21.30;99.90
8820;DHT22;4446;50.876;4.736;2023-07-28T10:38:33;21.30;99.90
8820;DHT22;4446;50.876;4.736;2023-07-28T10:41:11;21.30;99.90
8820;DHT22;4446;50.876;4.736;2023-07-28T10:43:40;21.30;99.90
8820;DHT22;4446;50.876;4.736;2023-07-28T10:46:09;21.10;99.90
8820;DHT22;4446;50.876;4.736;2023-07-28T10:48:36;21.20;99.90
8820;DHT22;4446;50.876;4.736;2023-07-28T10:51:06;21.40;99.90
8820;DHT22;4446;50.876;4.736;2023-07-28T10:53:33;21.60;99.90
8820;DHT22;4446;50.876;4.736;2023-07-28T10:56:02;21.90;99.90
8820;DHT22;4446;50.876;4.736;2023-07-28T10:58:30;22.20;99.90
8820;DHT22;4446;50.876;4.736;2023-07-28T11:00:57;22.20;99.90
8820;DHT22;4446;50.876;4.736;2023-07-28T11:03:24;22.10;99.90
8820;DHT22;4446;50.876;4.736;2023-07-28T11:05:54;22.10;99.90
8820;DHT22;4446;50.876;4.736;2023-07-28T11:08:23;22.00;99.90
8820;DHT22;4446;50.876;4.736;2023-07-28T11:10:50;22.10;99.90
8820;DHT22;4446;50.876;4.736;2023-07-28T11:13:17;22.20;99.90
8820;DHT22;4446;50.876;4.736;2023-07-28T11:15:44;22.30;99.90
8820;DHT22;4446;50.876;4.736;2023-07-28T11:18:15;22.30;99.90
8820;DHT22;4446;50.876;4.736;2023-07-28T11:20:42;22.50;99.90
8820;DHT22;4446;50.876;4.736;2023-07-28T11:23:14;22.70;99.90
8820;DHT22;4446;50.876;4.736;2023-07-28T11:25:43;22.60;99.90
8820;DHT22;4446;50.876;4.736;2023-07-28T11:28:10;22.70;99.90
8820;DHT22;4446;50.876;4.736;2023-07-28T11:30:37;22.70;99.90
8820;DHT22;4446;50.876;4.736;2023-07-28T11:33:08;22.80;99.90
8820;DHT22;4446;50.876;4.736;2023-07-28T11:35:37;22.80;99.90
8820;DHT22;4446;50.876;4.736;2023-07-28T11:38:04;22.70;99.90
8820;DHT22;4446;50.876;4.736;2023-07-28T11:40:31;22.60;99.90
8820;DHT22;4446;50.876;4.736;2023-07-28T11:43:00;22.40;99.90
8820;DHT22;4446;50.876;4.736;2023-07-28T11:45:27;22.20;99.90
8820;DHT22;4446;50.876;4.736;2023-07-28T11:47:58;22.20;99.90
8820;DHT22;4446;50.876;4.736;2023-07-28T11:50:26;22.30;99.90
8820;DHT22;4446;50.876;4.736;2023-07-28T11:52:54;22.40;99.90
8820;DHT22;4446;50.876;4.736;2023-07-28T11:55:21;22.60;99.90
8820;DHT22;4446;50.876;4.736;2023-07-28T11:57:49;22.70;99.90
8820;DHT22;4446;50.876;4.736;2023-07-28T12:00:18;22.90;99.90
8820;DHT22;4446;50.876;4.736;2023-07-28T12:03:01;23.00;99.90
8820;DHT22;4446;50.876;4.736;2023-07-28T12:05:29;23.20;99.90
8820;DHT22;4446;50.876;4.736;2023-07-28T12:07:56;23.30;99.90
8820;DHT22;4446;50.876;4.736;2023-07-28T12:10:23;23.10;99.90
8820;DHT22;4446;50.876;4.736;2023-07-28T12:12:50;22.90;99.90
8820;DHT22;4446;50.876;4.736;2023-07-28T12:15:24;22.60;99.90
8820;DHT22;4446;50.876;4.736;2023-07-28T12:18:10;22.50;99.90
8820;DHT22;4446;50.876;4.736;2023-07-28T12:20:40;22.40;99.90
8820;DHT22;4446;50.876;4.736;2023-07-28T12:23:07;22.50;99.90
8820;DHT22;4446;50.876;4.736;2023-07-28T12:25:36;23.00;99.90
8820;DHT22;4446;50.876;4.736;2023-07-28T12:28:03;23.30;99.90
8820;DHT22;4446;50.876;4.736;2023-07-28T12:30:32;23.60;99.90
8820;DHT22;4446;50.876;4.736;2023-07-28T12:32:59;23.90;99.90
8820;DHT22;4446;50.876;4.736;2023-07-28T12:35:26;24.10;99.90
8820;DHT22;4446;50.876;4.736;2023-07-28T12:37:56;24.20;99.90
8820;DHT22;4446;50.876;4.736;2023-07-28T12:40:26;24.30;99.90
8820;DHT22;4446;50.876;4.736;2023-07-28T12:42:54;24.40;99.90
8820;DHT22;4446;50.876;4.736;2023-07-28T12:45:21;24.60;99.90
8820;DHT22;4446;50.876;4.736;2023-07-28T12:47:49;24.60;99.90
8820;DHT22;4446;50.876;4.736;2023-07-28T12:50:16;24.60;99.90
8820;DHT22;4446;50.876;4.736;2023-07-28T12:52:43;24.60;99.90
8820;DHT22;4446;50.876;4.736;2023-07-28T12:55:10;24.70;99.90
8820;DHT22;4446;50.876;4.736;2023-07-28T12:57:37;25.00;99.90
8820;DHT22;4446;50.876;4.736;2023-07-28T13:00:05;25.20;99.90
8820;DHT22;4446;50.876;4.736;2023-07-28T13:02:38;25.10;99.90
8820;DHT22;4446;50.876;4.736;2023-07-28T13:05:07;25.00;99.90
8820;DHT22;4446;50.876;4.736;2023-07-28T13:07:36;25.10;99.90
8820;DHT22;4446;50.876;4.736;2023-07-28T13:10:04;25.10;99.90
8820;DHT22;4446;50.876;4.736;2023-07-28T13:12:31;25.50;99.90
8820;DHT22;4446;50.876;4.736;2023-07-28T13:14:58;25.90;99.90
8820;DHT22;4446;50.876;4.736;2023-07-28T13:17:25;25.90;99.90
8820;DHT22;4446;50.876;4.736;2023-07-28T13:19:52;25.90;99.90
8820;DHT22;4446;50.876;4.736;2023-07-28T13:22:20;25.90;99.90
8820;DHT22;4446;50.876;4.736;2023-07-28T13:24:47;26.20;99.90
8820;DHT22;4446;50.876;4.736;2023-07-28T13:27:14;26.20;99.90
8820;DHT22;4446;50.876;4.736;2023-07-28T13:29:41;26.20;99.90
8820;DHT22;4446;50.876;4.736;2023-07-28T13:32:16;26.40;99.90
8820;DHT22;4446;50.876;4.736;2023-07-28T13:34:43;26.70;99.90
8820;DHT22;4446;50.876;4.736;2023-07-28T13:37:10;27.20;99.90
8820;DHT22;4446;50.876;4.736;2023-07-28T13:39:38;27.60;99.90
8820;DHT22;4446;50.876;4.736;2023-07-28T13:42:05;27.60;99.90
8820;DHT22;4446;50.876;4.736;2023-07-28T13:44:32;27.20;99.90
8820;DHT22;4446;50.876;4.736;2023-07-28T13:46:59;26.80;99.90
8820;DHT22;4446;50.876;4.736;2023-07-28T13:49:26;26.40;99.90
8820;DHT22;4446;50.876;4.736;2023-07-28T13:51:53;26.40;99.90
8820;DHT22;4446;50.876;4.736;2023-07-28T13:54:20;26.40;99.90
8820;DHT22;4446;50.876;4.736;2023-07-28T13:56:49;26.80;99.90
8820;DHT22;4446;50.876;4.736;2023-07-28T13:59:15;27.10;99.90
8820;DHT22;4446;50.876;4.736;2023-07-28T14:01:42;27.10;99.90
8820;DHT22;4446;50.876;4.736;2023-07-28T14:04:09;27.20;99.90
8820;DHT22;4446;50.876;4.736;2023-07-28T14:06:37;27.50;99.90
8820;DHT22;4446;50.876;4.736;2023-07-28T14:09:04;27.90;99.90
8820;DHT22;4446;50.876;4.736;2023-07-28T14:11:31;27.90;99.90
8820;DHT22;4446;50.876;4.736;2023-07-28T14:13:59;28.20;99.90
8820;DHT22;4446;50.876;4.736;2023-07-28T14:16:26;28.70;99.90
8820;DHT22;4446;50.876;4.736;2023-07-28T14:18:53;29.50;99.90
8820;DHT22;4446;50.876;4.736;2023-07-28T14:21:20;29.60;99.90
8820;DHT22;4446;50.876;4.736;2023-07-28T14:23:47;29.00;99.90
8820;DHT22;4446;50.876;4.736;2023-07-28T14:26:14;29.00;99.90
8820;DHT22;4446;50.876;4.736;2023-07-28T14:28:41;29.30;99.90
8820;DHT22;4446;50.876;4.736;2023-07-28T14:31:09;29.60;99.90
8820;DHT22;4446;50.876;4.736;2023-07-28T14:33:37;30.10;99.90
8820;DHT22;4446;50.876;4.736;2023-07-28T14:36:04;30.20;99.90
8820;DHT22;4446;50.876;4.736;2023-07-28T14:38:30;30.30;99.90
8820;DHT22;4446;50.876;4.736;2023-07-28T14:40:57;30.60;99.90
8820;DHT22;4446;50.876;4.736;2023-07-28T14:43:24;31.00;99.90
8820;DHT22;4446;50.876;4.736;2023-07-28T14:45:51;30.70;99.90
8820;DHT22;4446;50.876;4.736;2023-07-28T14:48:20;30.00;99.90
8820;DHT22;4446;50.876;4.736;2023-07-28T14:50:47;29.30;99.90
8820;DHT22;4446;50.876;4.736;2023-07-28T14:53:33;28.50;99.90
8820;DHT22;4446;50.876;4.736;2023-07-28T14:56:01;28.00;99.90
8820;DHT22;4446;50.876;4.736;2023-07-28T14:58:28;27.70;99.90
8820;DHT22;4446;50.876;4.736;2023-07-28T15:00:56;27.60;99.90
8820;DHT22;4446;50.876;4.736;2023-07-28T15:03:26;28.00;99.90
8820;DHT22;4446;50.876;4.736;2023-07-28T15:05:53;28.60;99.90
8820;DHT22;4446;50.876;4.736;2023-07-28T15:08:20;29.30;99.90
8820;DHT22;4446;50.876;4.736;2023-07-28T15:10:47;29.70;99.90
8820;DHT22;4446;50.876;4.736;2023-07-28T15:13:14;30.40;99.90
8820;DHT22;4446;50.876;4.736;2023-07-28T15:15:41;30.60;99.90
8820;DHT22;4446;50.876;4.736;2023-07-28T15:18:08;30.80;99.90
8820;DHT22;4446;50.876;4.736;2023-07-28T15:20:37;30.50;99.90
8820;DHT22;4446;50.876;4.736;2023-07-28T15:23:04;30.80;99.90
8820;DHT22;4446;50.876;4.736;2023-07-28T15:25:31;31.20;99.90
8820;DHT22;4446;50.876;4.736;2023-07-28T15:27:58;30.70;99.90
8820;DHT22;4446;50.876;4.736;2023-07-28T15:30:25;30.60;99.90
8820;DHT22;4446;50.876;4.736;2023-07-28T15:32:52;30.80;99.90
8820;DHT22;4446;50.876;4.736;2023-07-28T15:35:19;30.50;99.90
8820;DHT22;4446;50.876;4.736;2023-07-28T15:37:47;30.50;99.90
8820;DHT22;4446;50.876;4.736;2023-07-28T15:40:14;30.50;99.90
8820;DHT22;4446;50.876;4.736;2023-07-28T15:42:41;30.40;99.90
8820;DHT22;4446;50.876;4.736;2023-07-28T15:45:08;29.80;99.90
8820;DHT22;4446;50.876;4.736;2023-07-28T15:47:35;29.60;99.90
8820;DHT22;4446;50.876;4.736;2023-07-28T15:50:02;29.90;99.90
8820;DHT22;4446;50.876;4.736;2023-07-28T15:52:30;29.70;99.90
8820;DHT22;4446;50.876;4.736;2023-07-28T15:54:59;29.40;99.90
8820;DHT22;4446;50.876;4.736;2023-07-28T15:57:26;29.30;99.90
8820;DHT22;4446;50.876;4.736;2023-07-28T15:59:53;29.30;99.90
8820;DHT22;4446;50.876;4.736;2023-07-28T16:02:20;29.60;99.90
8820;DHT22;4446;50.876;4.736;2023-07-28T16:04:47;29.40;99.90
8820;DHT22;4446;50.876;4.736;2023-07-28T16:07:14;28.70;99.90